createdAt,value
2022-12-26T00:00:59.486Z,8.75
2022-12-26T00:03:26.376Z,7.68
2022-12-26T00:05:53.424Z,7.03
2022-12-26T00:08:21.115Z,7.30
2022-12-26T00:10:47.731Z,8.85
2022-12-26T00:13:38.614Z,7.97
2022-12-26T00:16:10.285Z,7.60
2022-12-26T00:18:37.721Z,6.63
2022-12-26T00:21:04.824Z,8.93
2022-12-26T00:23:33.311Z,7.13
2022-12-26T00:26:11.767Z,9.82
2022-12-26T00:28:38.737Z,10.07
2022-12-26T00:31:08.443Z,9.73
2022-12-26T00:33:35.978Z,7.40
2022-12-26T00:36:08.700Z,7.07
2022-12-26T00:38:38.531Z,10.73
2022-12-26T00:41:05.593Z,7.80
2022-12-26T00:43:32.667Z,8.10
2022-12-26T00:46:00.108Z,8.27
2022-12-26T00:48:27.485Z,9.90
2022-12-26T00:50:54.887Z,9.25
2022-12-26T00:53:22.798Z,8.07
2022-12-26T00:55:49.614Z,10.23
2022-12-26T00:58:16.229Z,9.13
2022-12-26T01:00:43.079Z,13.27
2022-12-26T01:03:12.661Z,11.07
2022-12-26T01:05:44.026Z,12.43
2022-12-26T01:08:21.626Z,10.13
2022-12-26T01:10:51.162Z,10.57
2022-12-26T01:13:17.916Z,10.75
2022-12-26T01:15:53.075Z,13.32
2022-12-26T01:18:20.857Z,10.88
2022-12-26T01:20:48.728Z,10.23
2022-12-26T01:23:16.389Z,10.93
2022-12-26T01:26:18.900Z,9.82
2022-12-26T01:28:29.987Z,10.10
2022-12-26T01:31:01.803Z,9.30
2022-12-26T01:33:28.659Z,8.57
2022-12-26T01:35:55.310Z,9.73
2022-12-26T01:38:23.085Z,9.02
2022-12-26T01:41:10.060Z,10.20
2022-12-26T01:43:50.090Z,9.40
2022-12-26T01:46:19.212Z,9.98
2022-12-26T01:48:47.429Z,10.07
2022-12-26T01:51:16.221Z,10.73
2022-12-26T01:53:49.212Z,10.60
2022-12-26T01:56:23.945Z,11.23
2022-12-26T01:58:55.514Z,11.50
2022-12-26T02:01:26.151Z,13.73
2022-12-26T02:04:11.675Z,12.20
2022-12-26T02:06:38.857Z,14.35
2022-12-26T02:09:06.618Z,13.38
2022-12-26T02:11:50.065Z,13.57
2022-12-26T02:14:38.379Z,12.65
2022-12-26T02:17:05.802Z,16.13
2022-12-26T02:20:03.919Z,14.45
2022-12-26T02:22:53.173Z,12.35
2022-12-26T02:25:54.124Z,14.80
2022-12-26T02:29:08.696Z,12.35
2022-12-26T02:32:14.424Z,12.68
2022-12-26T02:34:43.779Z,14.65
2022-12-26T02:37:10.465Z,13.73
2022-12-26T02:40:14.111Z,11.63
2022-12-26T02:43:10.774Z,13.52
2022-12-26T02:46:08.471Z,13.53
2022-12-26T02:48:58.146Z,12.00
2022-12-26T02:51:58.471Z,14.65
2022-12-26T02:54:52.833Z,15.15
2022-12-26T02:57:42.964Z,15.48
2022-12-26T03:00:32.148Z,17.20
2022-12-26T03:03:26.201Z,15.63
2022-12-26T03:06:36.465Z,17.60
2022-12-26T03:09:39.648Z,17.77
2022-12-26T03:13:11.517Z,15.73
2022-12-26T03:16:20.989Z,19.85
2022-12-26T03:18:59.198Z,19.08
2022-12-26T03:21:32.449Z,18.88
2022-12-26T03:23:59.780Z,15.00
2022-12-26T03:26:42.074Z,20.23
2022-12-26T03:29:30.922Z,17.25
2022-12-26T03:31:58.956Z,19.65
2022-12-26T03:34:25.765Z,22.27
2022-12-26T03:37:14.235Z,21.08
2022-12-26T03:40:19.277Z,21.52
2022-12-26T03:43:13.679Z,19.55
2022-12-26T03:46:01.779Z,17.35
2022-12-26T03:48:53.720Z,18.25
2022-12-26T03:51:52.581Z,19.30
2022-12-26T03:54:57.623Z,15.70
2022-12-26T03:57:51.623Z,19.42
2022-12-26T04:00:37.369Z,18.60
2022-12-26T04:03:30.960Z,20.35
2022-12-26T04:06:20.077Z,17.75
2022-12-26T04:09:14.647Z,16.83
2022-12-26T04:12:02.558Z,15.20
2022-12-26T04:15:13.986Z,12.88
2022-12-26T04:18:08.338Z,13.75
2022-12-26T04:20:55.256Z,15.82
2022-12-26T04:23:43.018Z,14.98
2022-12-26T04:26:51.298Z,16.70
2022-12-26T04:29:36.930Z,12.55
2022-12-26T04:32:32.503Z,13.85
2022-12-26T04:35:26.617Z,13.50
2022-12-26T04:38:15.162Z,13.77
2022-12-26T04:41:05.647Z,20.77
2022-12-26T04:43:52.577Z,14.10
2022-12-26T04:46:24.023Z,16.23
2022-12-26T04:49:11.872Z,12.57
2022-12-26T04:51:38.548Z,12.15
2022-12-26T04:54:06.578Z,13.95
2022-12-26T04:56:33.689Z,18.10
2022-12-26T04:59:00.712Z,16.48
2022-12-26T05:01:47.213Z,15.43
2022-12-26T05:04:34.935Z,15.18
2022-12-26T05:07:22.407Z,11.73
2022-12-26T05:09:51.977Z,13.85
2022-12-26T05:12:19.209Z,15.73
2022-12-26T05:14:46.576Z,14.20
2022-12-26T05:17:32.892Z,13.65
2022-12-26T05:20:18.440Z,13.18
2022-12-26T05:23:05.464Z,17.55
2022-12-26T05:25:56.404Z,11.77
2022-12-26T05:28:41.625Z,15.30
2022-12-26T05:31:16.228Z,15.60
2022-12-26T05:34:01.601Z,19.17
2022-12-26T05:36:33.439Z,15.55
2022-12-26T05:39:00.744Z,15.70
2022-12-26T05:41:27.793Z,16.50
2022-12-26T05:43:54.492Z,18.58
2022-12-26T05:46:21.196Z,21.45
2022-12-26T05:48:48.058Z,20.33
2022-12-26T05:51:15.890Z,16.38
2022-12-26T05:53:42.684Z,19.70
2022-12-26T05:56:14.731Z,17.52
2022-12-26T05:58:42.091Z,19.05
2022-12-26T06:01:14.874Z,16.92
2022-12-26T06:03:45.443Z,18.10
2022-12-26T06:06:12.408Z,19.75
2022-12-26T06:08:39.752Z,19.65
2022-12-26T06:11:10.070Z,16.13
2022-12-26T06:13:37.073Z,20.17
2022-12-26T06:16:09.415Z,18.15
2022-12-26T06:18:37.517Z,18.20
2022-12-26T06:21:09.390Z,18.35
2022-12-26T06:23:36.999Z,18.90
2022-12-26T06:26:06.028Z,18.48
2022-12-26T06:28:34.858Z,17.35
2022-12-26T06:31:03.661Z,21.77
2022-12-26T06:33:30.649Z,19.15
2022-12-26T06:36:12.792Z,18.45
2022-12-26T06:38:39.699Z,18.45
2022-12-26T06:41:08.285Z,19.73
2022-12-26T06:43:55.875Z,20.48
2022-12-26T06:46:24.390Z,19.02
2022-12-26T06:48:51.864Z,20.65
2022-12-26T06:51:23.664Z,18.50
2022-12-26T06:53:51.805Z,19.48
2022-12-26T06:56:24.324Z,20.05
2022-12-26T06:59:03.538Z,17.35
2022-12-26T07:01:32.523Z,15.75
2022-12-26T07:04:00.275Z,13.65
2022-12-26T07:06:32.513Z,17.95
2022-12-26T07:09:14.468Z,15.57
2022-12-26T07:11:45.196Z,16.08
2022-12-26T07:14:14.662Z,12.15
2022-12-26T07:16:43.727Z,11.75
2022-12-26T07:19:15.730Z,11.98
2022-12-26T07:21:43.522Z,12.90
2022-12-26T07:24:19.953Z,13.18
2022-12-26T07:26:47.511Z,8.68
2022-12-26T07:29:14.957Z,8.02
2022-12-26T07:31:43.986Z,7.93
2022-12-26T07:34:10.663Z,8.80
2022-12-26T07:36:37.554Z,7.20
2022-12-26T07:39:04.195Z,9.02
2022-12-26T07:41:49.582Z,8.10
2022-12-26T07:44:16.435Z,7.03
2022-12-26T07:47:02.412Z,8.32
2022-12-26T07:49:29.195Z,6.70
2022-12-26T07:51:55.813Z,6.65
2022-12-26T07:54:22.702Z,10.65
2022-12-26T07:56:49.432Z,6.35
2022-12-26T07:59:17.682Z,7.15
2022-12-26T08:01:45.050Z,6.30
2022-12-26T08:04:12.821Z,7.05
2022-12-26T08:06:39.923Z,7.03
2022-12-26T08:09:07.962Z,5.70
2022-12-26T08:11:35.834Z,6.25
2022-12-26T08:14:03.087Z,8.25
2022-12-26T08:16:31.455Z,6.00
2022-12-26T08:18:58.490Z,7.40
2022-12-26T08:21:25.046Z,6.57
2022-12-26T08:23:51.963Z,6.20
2022-12-26T08:26:22.882Z,5.30
2022-12-26T08:28:51.393Z,6.20
2022-12-26T08:31:19.941Z,6.20
2022-12-26T08:33:47.165Z,5.97
2022-12-26T08:36:17.067Z,8.30
2022-12-26T08:38:43.833Z,12.20
2022-12-26T08:41:10.502Z,5.82
2022-12-26T08:44:24.499Z,6.47
2022-12-26T08:46:25.091Z,6.10
2022-12-26T08:48:52.433Z,6.40
2022-12-26T08:51:22.317Z,11.75
2022-12-26T08:53:50.171Z,8.68
2022-12-26T08:56:20.585Z,7.05
2022-12-26T08:58:48.023Z,5.90
2022-12-26T09:01:19.073Z,6.75
2022-12-26T09:04:23.644Z,5.93
2022-12-26T09:06:50.413Z,7.07
2022-12-26T09:09:17.400Z,6.55
2022-12-26T09:11:44.256Z,6.18
2022-12-26T09:14:11.743Z,15.02
2022-12-26T09:16:49.199Z,4.50
2022-12-26T09:19:17.855Z,5.65
2022-12-26T09:21:44.892Z,4.50
2022-12-26T09:24:14.592Z,4.00
2022-12-26T09:26:41.582Z,4.45
2022-12-26T09:29:09.599Z,4.40
2022-12-26T09:31:36.382Z,4.45
2022-12-26T09:34:05.067Z,4.78
2022-12-26T09:36:33.843Z,4.50
2022-12-26T09:39:01.031Z,3.17
2022-12-26T09:41:45.813Z,4.95
2022-12-26T09:44:24.415Z,4.50
2022-12-26T09:46:59.821Z,3.13
2022-12-26T09:49:32.763Z,6.68
2022-12-26T09:52:04.698Z,14.63
2022-12-26T09:54:50.885Z,3.42
2022-12-26T09:57:23.835Z,4.30
2022-12-26T09:59:59.936Z,3.53
2022-12-26T10:02:27.389Z,4.40
2022-12-26T10:04:55.526Z,4.43
2022-12-26T10:07:35.227Z,3.63
2022-12-26T10:10:12.681Z,2.90
2022-12-26T10:13:24.373Z,6.25
2022-12-26T10:15:59.378Z,3.35
2022-12-26T10:18:55.388Z,5.90
2022-12-26T10:21:22.062Z,2.72
2022-12-26T10:24:03.623Z,6.00
2022-12-26T10:26:36.329Z,4.88
2022-12-26T10:29:18.864Z,5.07
2022-12-26T10:31:48.194Z,7.65
2022-12-26T10:34:26.277Z,3.55
2022-12-26T10:37:10.659Z,2.67
2022-12-26T10:39:46.884Z,4.60
2022-12-26T10:42:38.561Z,3.40
2022-12-26T10:45:39.156Z,3.28
2022-12-26T10:48:06.316Z,2.97
2022-12-26T10:50:35.101Z,4.32
2022-12-26T10:53:07.037Z,2.58
2022-12-26T10:55:35.629Z,2.50
2022-12-26T10:59:06.286Z,4.05
2022-12-26T11:01:51.893Z,3.03
2022-12-26T11:04:52.875Z,3.53
2022-12-26T11:07:12.813Z,3.53
2022-12-26T11:09:45.861Z,3.28
2022-12-26T11:16:01.462Z,2.00
2022-12-26T11:18:52.195Z,5.85
2022-12-26T11:21:19.071Z,5.22
2022-12-26T11:23:52.559Z,10.10
2022-12-26T11:26:29.800Z,4.63
2022-12-26T11:29:18.478Z,5.32
2022-12-26T11:32:14.806Z,7.57
2022-12-26T11:34:46.464Z,8.80
2022-12-26T11:37:31.842Z,3.90
2022-12-26T11:39:59.299Z,5.88
2022-12-26T11:42:26.916Z,7.03
2022-12-26T11:44:56.307Z,4.97
2022-12-26T11:47:27.316Z,4.22
2022-12-26T11:50:05.827Z,2.97
2022-12-26T11:52:44.178Z,3.15
2022-12-26T11:55:34.553Z,5.80
2022-12-26T11:58:06.474Z,5.70
2022-12-26T12:00:37.473Z,3.83
2022-12-26T12:03:13.116Z,11.95
2022-12-26T12:06:27.399Z,5.45
2022-12-26T12:09:10.113Z,4.80
2022-12-26T12:11:49.515Z,4.03
2022-12-26T12:14:25.027Z,7.15
2022-12-26T12:16:54.369Z,3.80
2022-12-26T12:19:21.063Z,5.05
2022-12-26T12:22:04.917Z,11.95
2022-12-26T12:24:39.783Z,9.20
2022-12-26T12:27:27.800Z,6.55
2022-12-26T12:30:06.636Z,4.88
2022-12-26T12:32:57.305Z,5.05
2022-12-26T12:35:26.999Z,3.13
2022-12-26T12:38:28.863Z,6.43
2022-12-26T12:41:31.161Z,5.03
2022-12-26T12:44:23.001Z,5.10
2022-12-26T12:47:17.656Z,8.88
2022-12-26T12:49:50.265Z,5.93
2022-12-26T12:52:46.251Z,2.95
2022-12-26T12:55:50.345Z,6.60
2022-12-26T12:58:35.327Z,7.68
2022-12-26T13:01:16.140Z,3.47
2022-12-26T13:03:53.545Z,3.03
2022-12-26T13:06:20.148Z,5.72
2022-12-26T13:09:12.384Z,2.60
2022-12-26T13:11:46.280Z,6.72
2022-12-26T13:14:31.556Z,7.03
2022-12-26T13:17:11.467Z,5.50
2022-12-26T13:20:02.332Z,2.60
2022-12-26T13:22:55.957Z,4.05
2022-12-26T13:25:27.129Z,6.55
2022-12-26T13:28:09.671Z,2.65
2022-12-26T13:30:40.979Z,4.95
2022-12-26T13:33:14.788Z,7.70
2022-12-26T13:36:05.112Z,3.00
2022-12-26T13:38:56.640Z,2.58
2022-12-26T13:41:44.672Z,4.20
2022-12-26T13:44:20.586Z,5.47
2022-12-26T13:46:47.420Z,4.00
2022-12-26T13:49:30.687Z,4.10
2022-12-26T13:52:00.096Z,2.80
2022-12-26T13:54:28.340Z,3.75
2022-12-26T13:57:15.554Z,5.07
2022-12-26T14:00:00.220Z,4.68
2022-12-26T14:03:16.501Z,5.50
2022-12-26T14:06:24.184Z,5.38
2022-12-26T14:09:03.004Z,3.80
2022-12-26T14:11:46.698Z,3.83
2022-12-26T14:14:32.513Z,7.90
2022-12-26T14:17:22.985Z,6.30
2022-12-26T14:20:17.704Z,6.35
2022-12-26T14:22:58.859Z,5.28
2022-12-26T14:25:32.753Z,6.93
2022-12-26T14:28:12.822Z,4.55
2022-12-26T14:30:55.990Z,4.55
2022-12-26T14:34:14.039Z,6.22
2022-12-26T14:36:56.331Z,9.10
2022-12-26T14:40:12.568Z,4.50
2022-12-26T14:43:12.005Z,5.53
2022-12-26T14:45:45.867Z,3.28
2022-12-26T14:48:15.493Z,2.42
2022-12-26T14:50:47.672Z,3.03
2022-12-26T14:53:20.526Z,10.80
2022-12-26T14:56:10.733Z,6.50
2022-12-26T14:58:44.976Z,8.57
2022-12-26T15:01:15.780Z,6.18
2022-12-26T15:03:49.134Z,7.63
2022-12-26T15:06:18.449Z,8.15
2022-12-26T15:09:02.862Z,6.00
2022-12-26T15:11:50.113Z,8.02
2022-12-26T15:14:56.642Z,8.95
2022-12-26T15:17:32.091Z,4.50
2022-12-26T15:20:38.170Z,7.45
2022-12-26T15:23:20.040Z,7.65
2022-12-26T15:26:15.102Z,5.13
2022-12-26T15:28:59.924Z,6.70
2022-12-26T15:31:34.071Z,4.35
2022-12-26T15:34:31.540Z,4.85
2022-12-26T15:37:16.559Z,7.10
2022-12-26T15:39:57.373Z,3.83
2022-12-26T15:42:34.895Z,8.25
2022-12-26T15:45:29.683Z,10.18
2022-12-26T15:48:06.509Z,8.82
2022-12-26T15:53:25.672Z,5.70
2022-12-26T15:56:17.748Z,8.63
2022-12-26T15:59:05.700Z,6.22
2022-12-26T16:01:41.651Z,5.95
2022-12-26T16:04:21.593Z,5.75
2022-12-26T16:07:08.855Z,8.45
2022-12-26T16:12:25.607Z,6.95
2022-12-26T16:15:16.332Z,7.13
2022-12-26T16:17:44.059Z,3.67
2022-12-26T16:20:50.199Z,5.45
2022-12-26T16:23:30.043Z,6.45
2022-12-26T16:25:59.636Z,4.65
2022-12-26T16:28:45.054Z,7.68
2022-12-26T16:31:20.863Z,7.68
2022-12-26T16:33:48.487Z,9.73
2022-12-26T16:36:21.263Z,6.80
2022-12-26T16:38:48.988Z,4.93
2022-12-26T16:41:23.760Z,7.97
2022-12-26T16:43:52.436Z,11.25
2022-12-26T16:46:22.658Z,7.50
2022-12-26T16:48:55.616Z,4.55
2022-12-26T16:51:47.249Z,4.47
2022-12-26T16:54:14.907Z,10.02
2022-12-26T16:56:42.354Z,12.60
2022-12-26T16:59:17.896Z,12.23
2022-12-26T17:01:54.221Z,7.00
2022-12-26T17:04:23.792Z,7.05
2022-12-26T17:06:57.765Z,7.03
2022-12-26T17:09:27.481Z,8.00
2022-12-26T17:12:02.863Z,7.72
2022-12-26T17:14:36.875Z,13.73
2022-12-26T17:17:25.219Z,7.85
2022-12-26T17:19:54.718Z,5.10
2022-12-26T17:22:36.783Z,10.10
2022-12-26T17:25:24.600Z,7.57
2022-12-26T17:28:11.004Z,15.77
2022-12-26T17:30:46.556Z,20.50
2022-12-26T17:33:17.450Z,23.17
2022-12-26T17:38:41.852Z,5.63
2022-12-26T17:41:13.101Z,8.55
2022-12-26T17:43:41.488Z,6.03
2022-12-26T17:46:26.870Z,19.00
2022-12-26T17:48:53.483Z,11.60
2022-12-26T17:51:20.159Z,8.80
2022-12-26T17:53:51.380Z,7.00
2022-12-26T17:56:21.293Z,10.38
2022-12-26T17:58:49.530Z,7.05
2022-12-26T18:01:20.947Z,7.63
2022-12-26T18:03:49.428Z,6.03
2022-12-26T18:06:17.347Z,15.55
2022-12-26T18:08:44.661Z,10.45
2022-12-26T18:11:13.535Z,12.27
2022-12-26T18:13:41.090Z,6.10
2022-12-26T18:16:10.498Z,3.97
2022-12-26T18:18:45.707Z,5.13
2022-12-26T18:21:15.415Z,4.45
2022-12-26T18:23:42.396Z,28.65
2022-12-26T18:26:18.186Z,45.67
2022-12-26T18:28:45.457Z,10.63
2022-12-26T18:31:16.608Z,13.25
2022-12-26T18:33:43.374Z,11.50
2022-12-26T18:36:14.095Z,9.50
2022-12-26T18:38:41.268Z,11.48
2022-12-26T18:41:15.683Z,8.77
2022-12-26T18:43:45.580Z,11.07
2022-12-26T18:46:21.354Z,8.50
2022-12-26T18:48:48.959Z,8.13
2022-12-26T18:51:16.050Z,10.00
2022-12-26T18:54:01.547Z,7.72
2022-12-26T18:56:28.194Z,10.57
2022-12-26T18:58:58.035Z,4.00
2022-12-26T19:01:25.539Z,8.73
2022-12-26T19:03:53.839Z,8.60
2022-12-26T19:06:25.116Z,8.45
2022-12-26T19:08:51.813Z,8.65
2022-12-26T19:11:18.728Z,8.88
2022-12-26T19:13:45.801Z,3.70
2022-12-26T19:16:12.806Z,5.65
2022-12-26T19:18:39.812Z,4.40
2022-12-26T19:21:12.462Z,11.20
2022-12-26T19:23:39.411Z,7.20
2022-12-26T19:26:15.877Z,8.65
2022-12-26T19:28:42.910Z,2.85
2022-12-26T19:31:14.463Z,6.05
2022-12-26T19:33:41.445Z,6.82
2022-12-26T19:36:09.141Z,7.20
2022-12-26T19:38:36.054Z,3.63
2022-12-26T19:41:09.262Z,6.45
2022-12-26T19:43:36.785Z,3.28
2022-12-26T19:46:12.668Z,7.68
2022-12-26T19:48:40.709Z,9.07
2022-12-26T19:51:11.213Z,6.07
2022-12-26T19:53:39.081Z,7.43
2022-12-26T19:56:12.852Z,3.70
2022-12-26T19:58:40.137Z,9.68
2022-12-26T20:01:19.260Z,9.50
2022-12-26T20:03:47.318Z,5.45
2022-12-26T20:06:20.491Z,5.97
2022-12-26T20:08:49.291Z,8.90
2022-12-26T20:11:19.570Z,6.50
2022-12-26T20:13:46.868Z,7.57
2022-12-26T20:16:45.941Z,5.43
2022-12-26T20:19:04.553Z,5.63
2022-12-26T20:21:32.374Z,5.75
2022-12-26T20:24:00.613Z,5.03
2022-12-26T20:26:29.631Z,6.25
2022-12-26T20:29:01.394Z,10.55
2022-12-26T20:31:29.921Z,6.10
2022-12-26T20:33:57.780Z,9.43
2022-12-26T20:36:27.353Z,7.07
2022-12-26T20:38:55.908Z,6.57
2022-12-26T20:41:22.897Z,2.53
2022-12-26T20:43:50.464Z,8.77
2022-12-26T20:46:22.941Z,4.38
2022-12-26T20:48:49.837Z,6.45
2022-12-26T20:51:19.594Z,3.90
2022-12-26T20:53:47.573Z,8.15
2022-12-26T20:56:14.178Z,7.45
2022-12-26T20:58:41.319Z,7.75
2022-12-26T21:01:11.864Z,8.85
2022-12-26T21:03:39.133Z,7.63
2022-12-26T21:06:15.761Z,9.82
2022-12-26T21:08:44.801Z,6.40
2022-12-26T21:11:25.328Z,3.83
2022-12-26T21:13:56.319Z,5.93
2022-12-26T21:16:29.276Z,6.43
2022-12-26T21:18:57.169Z,4.93
2022-12-26T21:21:30.244Z,4.50
2022-12-26T21:24:08.128Z,4.22
2022-12-26T21:26:37.309Z,11.85
2022-12-26T21:29:06.410Z,4.63
2022-12-26T21:31:34.673Z,7.65
2022-12-26T21:34:02.593Z,9.57
2022-12-26T21:36:30.158Z,6.63
2022-12-26T21:38:57.694Z,4.53
2022-12-26T21:41:27.018Z,8.15
2022-12-26T21:43:54.642Z,10.48
2022-12-26T21:46:21.536Z,4.78
2022-12-26T21:48:55.798Z,8.07
2022-12-26T21:51:27.046Z,4.07
2022-12-26T21:54:13.776Z,6.30
2022-12-26T21:56:40.720Z,20.65
2022-12-26T21:59:27.821Z,18.58
2022-12-26T22:01:54.603Z,8.48
2022-12-26T22:04:23.671Z,7.43
2022-12-26T22:06:51.384Z,10.40
2022-12-26T22:09:18.267Z,12.32
2022-12-26T22:12:04.119Z,7.82
2022-12-26T22:14:30.999Z,9.90
2022-12-26T22:16:58.081Z,7.45
2022-12-26T22:19:25.504Z,11.50
2022-12-26T22:21:53.331Z,3.80
2022-12-26T22:24:21.821Z,4.30
2022-12-26T22:26:48.749Z,5.63
2022-12-26T22:29:15.482Z,7.05
2022-12-26T22:31:42.204Z,2.45
2022-12-26T22:34:13.748Z,4.72
2022-12-26T22:36:41.017Z,8.68
2022-12-26T22:39:08.167Z,5.68
2022-12-26T22:41:35.162Z,4.35
2022-12-26T22:44:01.817Z,8.30
2022-12-26T22:46:28.530Z,4.63
2022-12-26T22:48:55.106Z,2.72
2022-12-26T22:51:23.927Z,7.10
2022-12-26T22:53:55.421Z,7.55
2022-12-26T22:56:22.112Z,3.55
2022-12-26T22:58:53.280Z,6.65
2022-12-26T23:01:20.916Z,4.63
2022-12-26T23:03:48.181Z,5.13
2022-12-26T23:06:21.089Z,3.58
2022-12-26T23:08:49.488Z,10.93
2022-12-26T23:11:16.775Z,6.45
2022-12-26T23:13:44.793Z,5.05
2022-12-26T23:16:22.373Z,4.65
2022-12-26T23:19:24.025Z,4.60
2022-12-26T23:21:50.838Z,4.57
2022-12-26T23:24:26.459Z,12.85
2022-12-26T23:26:56.012Z,5.70
2022-12-26T23:29:42.748Z,4.97
2022-12-26T23:32:10.667Z,7.53
2022-12-26T23:34:37.390Z,4.60
2022-12-26T23:37:04.146Z,8.98
2022-12-26T23:39:30.781Z,7.50
2022-12-26T23:41:57.461Z,8.00
2022-12-26T23:44:24.181Z,10.77
2022-12-26T23:46:50.852Z,3.97
2022-12-26T23:49:19.681Z,6.13
2022-12-26T23:51:46.251Z,6.32
2022-12-26T23:54:12.854Z,7.22
2022-12-26T23:56:39.593Z,6.82
2022-12-26T23:59:06.234Z,5.43
